sensor_id;sensor_type;location;lat;lon;timestamp;P1;durP1;ratioP1;P2;durP2;ratioP2
66707;SDS011;53622;0.000;0.000;2023-05-10T00:00:15;1.08;;;0.40;;
66707;SDS011;53622;0.000;0.000;2023-05-10T00:02:47;0.60;;;0.45;;
66707;SDS011;53622;0.000;0.000;2023-05-10T00:05:16;1.80;;;0.45;;
66707;SDS011;53622;0.000;0.000;2023-05-10T00:07:45;1.58;;;0.50;;
66707;SDS011;53622;0.000;0.000;2023-05-10T00:10:14;0.40;;;0.40;;
66707;SDS011;53622;0.000;0.000;2023-05-10T00:12:44;0.60;;;0.45;;
66707;SDS011;53622;0.000;0.000;2023-05-10T00:15:14;0.50;;;0.50;;
66707;SDS011;53622;0.000;0.000;2023-05-10T00:17:43;2.22;;;0.50;;
66707;SDS011;53622;0.000;0.000;2023-05-10T00:20:14;2.05;;;0.47;;
66707;SDS011;53622;0.000;0.000;2023-05-10T00:22:44;0.85;;;0.40;;
66707;SDS011;53622;0.000;0.000;2023-05-10T00:25:13;1.35;;;0.70;;
66707;SDS011;53622;0.000;0.000;2023-05-10T00:27:42;0.40;;;0.30;;
66707;SDS011;53622;0.000;0.000;2023-05-10T00:30:11;1.88;;;0.40;;
66707;SDS011;53622;0.000;0.000;2023-05-10T00:32:41;2.50;;;0.60;;
66707;SDS011;53622;0.000;0.000;2023-05-10T00:35:11;2.55;;;0.60;;
66707;SDS011;53622;0.000;0.000;2023-05-10T00:37:41;0.50;;;0.50;;
66707;SDS011;53622;0.000;0.000;2023-05-10T00:40:11;3.63;;;0.55;;
66707;SDS011;53622;0.000;0.000;2023-05-10T00:42:44;1.35;;;0.70;;
66707;SDS011;53622;0.000;0.000;2023-05-10T00:45:13;1.05;;;0.30;;
66707;SDS011;53622;0.000;0.000;2023-05-10T00:47:43;0.85;;;0.40;;
66707;SDS011;53622;0.000;0.000;2023-05-10T00:50:12;1.85;;;0.50;;
66707;SDS011;53622;0.000;0.000;2023-05-10T00:52:45;0.98;;;0.35;;
66707;SDS011;53622;0.000;0.000;2023-05-10T00:55:14;0.70;;;0.52;;
66707;SDS011;53622;0.000;0.000;2023-05-10T00:57:43;2.15;;;0.50;;
66707;SDS011;53622;0.000;0.000;2023-05-10T01:00:13;0.60;;;0.40;;
66707;SDS011;53622;0.000;0.000;2023-05-10T01:02:45;1.95;;;0.35;;
66707;SDS011;53622;0.000;0.000;2023-05-10T01:05:15;1.92;;;0.50;;
66707;SDS011;53622;0.000;0.000;2023-05-10T01:07:46;0.52;;;0.30;;
66707;SDS011;53622;0.000;0.000;2023-05-10T01:10:15;0.32;;;0.30;;
66707;SDS011;53622;0.000;0.000;2023-05-10T01:12:45;0.80;;;0.35;;
66707;SDS011;53622;0.000;0.000;2023-05-10T01:15:15;0.45;;;0.40;;
66707;SDS011;53622;0.000;0.000;2023-05-10T01:17:46;0.60;;;0.40;;
66707;SDS011;53622;0.000;0.000;2023-05-10T01:20:16;0.90;;;0.50;;
66707;SDS011;53622;0.000;0.000;2023-05-10T01:26:06;0.57;;;0.35;;
66707;SDS011;53622;0.000;0.000;2023-05-10T01:32:35;0.32;;;0.30;;
66707;SDS011;53622;0.000;0.000;2023-05-10T01:35:10;0.82;;;0.47;;
66707;SDS011;53622;0.000;0.000;2023-05-10T01:37:50;0.80;;;0.40;;
66707;SDS011;53622;0.000;0.000;2023-05-10T01:40:30;0.95;;;0.20;;
66707;SDS011;53622;0.000;0.000;2023-05-10T01:43:05;1.52;;;0.52;;
66707;SDS011;53622;0.000;0.000;2023-05-10T01:45:50;0.60;;;0.40;;
66707;SDS011;53622;0.000;0.000;2023-05-10T01:48:32;0.50;;;0.50;;
66707;SDS011;53622;0.000;0.000;2023-05-10T01:51:02;4.53;;;0.57;;
66707;SDS011;53622;0.000;0.000;2023-05-10T01:53:33;0.57;;;0.30;;
66707;SDS011;53622;0.000;0.000;2023-05-10T01:56:06;2.17;;;0.50;;
66707;SDS011;53622;0.000;0.000;2023-05-10T01:58:38;0.40;;;0.30;;
66707;SDS011;53622;0.000;0.000;2023-05-10T02:01:12;1.58;;;0.50;;
66707;SDS011;53622;0.000;0.000;2023-05-10T02:03:45;0.50;;;0.32;;
66707;SDS011;53622;0.000;0.000;2023-05-10T02:06:16;1.52;;;0.40;;
66707;SDS011;53622;0.000;0.000;2023-05-10T02:08:47;1.30;;;0.40;;
66707;SDS011;53622;0.000;0.000;2023-05-10T02:11:18;1.83;;;0.25;;
66707;SDS011;53622;0.000;0.000;2023-05-10T02:13:49;2.47;;;0.40;;
66707;SDS011;53622;0.000;0.000;2023-05-10T02:16:25;1.35;;;0.30;;
66707;SDS011;53622;0.000;0.000;2023-05-10T02:19:00;1.70;;;0.30;;
66707;SDS011;53622;0.000;0.000;2023-05-10T02:21:30;0.52;;;0.30;;
66707;SDS011;53622;0.000;0.000;2023-05-10T02:24:02;0.52;;;0.40;;
66707;SDS011;53622;0.000;0.000;2023-05-10T02:26:32;0.40;;;0.40;;
66707;SDS011;53622;0.000;0.000;2023-05-10T02:29:03;2.75;;;0.47;;
66707;SDS011;53622;0.000;0.000;2023-05-10T02:31:35;0.50;;;0.20;;
66707;SDS011;53622;0.000;0.000;2023-05-10T02:34:07;1.27;;;0.30;;
66707;SDS011;53622;0.000;0.000;2023-05-10T02:36:38;1.92;;;0.28;;
66707;SDS011;53622;0.000;0.000;2023-05-10T02:39:09;1.75;;;0.40;;
66707;SDS011;53622;0.000;0.000;2023-05-10T02:41:40;0.38;;;0.30;;
66707;SDS011;53622;0.000;0.000;2023-05-10T02:44:11;0.55;;;0.35;;
66707;SDS011;53622;0.000;0.000;2023-05-10T02:46:46;0.95;;;0.40;;
66707;SDS011;53622;0.000;0.000;2023-05-10T02:49:17;0.47;;;0.20;;
66707;SDS011;53622;0.000;0.000;2023-05-10T02:51:49;0.75;;;0.30;;
66707;SDS011;53622;0.000;0.000;2023-05-10T02:54:24;0.38;;;0.38;;
66707;SDS011;53622;0.000;0.000;2023-05-10T02:56:58;0.73;;;0.40;;
66707;SDS011;53622;0.000;0.000;2023-05-10T02:59:28;0.88;;;0.30;;
66707;SDS011;53622;0.000;0.000;2023-05-10T03:01:58;1.00;;;0.50;;
66707;SDS011;53622;0.000;0.000;2023-05-10T03:04:30;0.45;;;0.32;;
66707;SDS011;53622;0.000;0.000;2023-05-10T03:06:59;0.28;;;0.28;;
66707;SDS011;53622;0.000;0.000;2023-05-10T03:09:29;0.50;;;0.30;;
66707;SDS011;53622;0.000;0.000;2023-05-10T03:12:00;0.63;;;0.32;;
66707;SDS011;53622;0.000;0.000;2023-05-10T03:14:40;0.98;;;0.30;;
66707;SDS011;53622;0.000;0.000;2023-05-10T03:17:19;0.30;;;0.30;;
66707;SDS011;53622;0.000;0.000;2023-05-10T03:19:55;0.30;;;0.30;;
66707;SDS011;53622;0.000;0.000;2023-05-10T03:22:29;0.32;;;0.30;;
66707;SDS011;53622;0.000;0.000;2023-05-10T03:25:00;3.53;;;0.30;;
66707;SDS011;53622;0.000;0.000;2023-05-10T03:27:35;0.73;;;0.28;;
66707;SDS011;53622;0.000;0.000;2023-05-10T03:30:07;0.47;;;0.20;;
66707;SDS011;53622;0.000;0.000;2023-05-10T03:32:39;1.67;;;0.17;;
66707;SDS011;53622;0.000;0.000;2023-05-10T03:35:10;1.00;;;0.40;;
66707;SDS011;53622;0.000;0.000;2023-05-10T03:37:41;1.65;;;0.28;;
66707;SDS011;53622;0.000;0.000;2023-05-10T03:40:11;1.52;;;0.30;;
66707;SDS011;53622;0.000;0.000;2023-05-10T03:42:42;1.85;;;0.40;;
66707;SDS011;53622;0.000;0.000;2023-05-10T03:45:11;0.22;;;0.22;;
66707;SDS011;53622;0.000;0.000;2023-05-10T03:47:40;0.25;;;0.20;;
66707;SDS011;53622;0.000;0.000;2023-05-10T03:50:11;0.57;;;0.30;;
66707;SDS011;53622;0.000;0.000;2023-05-10T03:52:41;0.65;;;0.40;;
66707;SDS011;53622;0.000;0.000;2023-05-10T03:55:11;1.05;;;0.40;;
66707;SDS011;53622;0.000;0.000;2023-05-10T03:57:40;0.38;;;0.30;;
66707;SDS011;53622;0.000;0.000;2023-05-10T04:00:10;0.43;;;0.40;;
66707;SDS011;53622;0.000;0.000;2023-05-10T04:02:40;0.30;;;0.30;;
66707;SDS011;53622;0.000;0.000;2023-05-10T04:05:18;0.50;;;0.20;;
66707;SDS011;53622;0.000;0.000;2023-05-10T04:07:47;1.05;;;0.22;;
66707;SDS011;53622;0.000;0.000;2023-05-10T04:10:18;0.80;;;0.20;;
66707;SDS011;53622;0.000;0.000;2023-05-10T04:12:48;0.35;;;0.22;;
66707;SDS011;53622;0.000;0.000;2023-05-10T04:15:17;0.50;;;0.30;;
66707;SDS011;53622;0.000;0.000;2023-05-10T04:17:47;0.52;;;0.20;;
66707;SDS011;53622;0.000;0.000;2023-05-10T04:20:16;0.20;;;0.20;;
66707;SDS011;53622;0.000;0.000;2023-05-10T04:22:47;1.88;;;0.30;;
66707;SDS011;53622;0.000;0.000;2023-05-10T04:25:16;0.75;;;0.30;;
66707;SDS011;53622;0.000;0.000;2023-05-10T04:27:46;0.95;;;0.40;;
66707;SDS011;53622;0.000;0.000;2023-05-10T04:30:15;1.85;;;0.38;;
66707;SDS011;53622;0.000;0.000;2023-05-10T04:32:45;1.60;;;0.20;;
66707;SDS011;53622;0.000;0.000;2023-05-10T04:35:14;0.57;;;0.40;;
66707;SDS011;53622;0.000;0.000;2023-05-10T04:37:45;0.77;;;0.30;;
66707;SDS011;53622;0.000;0.000;2023-05-10T04:40:14;0.80;;;0.28;;
66707;SDS011;53622;0.000;0.000;2023-05-10T04:42:44;0.40;;;0.40;;
66707;SDS011;53622;0.000;0.000;2023-05-10T04:45:14;0.30;;;0.20;;
66707;SDS011;53622;0.000;0.000;2023-05-10T04:47:43;1.17;;;0.30;;
66707;SDS011;53622;0.000;0.000;2023-05-10T04:50:13;0.88;;;0.30;;
66707;SDS011;53622;0.000;0.000;2023-05-10T04:52:42;1.05;;;0.30;;
66707;SDS011;53622;0.000;0.000;2023-05-10T04:55:13;0.20;;;0.17;;
66707;SDS011;53622;0.000;0.000;2023-05-10T04:57:43;1.02;;;0.32;;
66707;SDS011;53622;0.000;0.000;2023-05-10T05:00:13;0.30;;;0.20;;
66707;SDS011;53622;0.000;0.000;2023-05-10T05:02:43;0.30;;;0.30;;
66707;SDS011;53622;0.000;0.000;2023-05-10T05:05:13;0.88;;;0.40;;
66707;SDS011;53622;0.000;0.000;2023-05-10T05:07:43;0.40;;;0.20;;
66707;SDS011;53622;0.000;0.000;2023-05-10T05:10:13;0.22;;;0.13;;
66707;SDS011;53622;0.000;0.000;2023-05-10T05:12:43;0.28;;;0.28;;
66707;SDS011;53622;0.000;0.000;2023-05-10T05:15:13;0.22;;;0.20;;
66707;SDS011;53622;0.000;0.000;2023-05-10T05:17:44;0.85;;;0.30;;
66707;SDS011;53622;0.000;0.000;2023-05-10T05:20:17;0.25;;;0.25;;
66707;SDS011;53622;0.000;0.000;2023-05-10T05:22:47;0.38;;;0.22;;
66707;SDS011;53622;0.000;0.000;2023-05-10T05:25:17;1.13;;;0.30;;
66707;SDS011;53622;0.000;0.000;2023-05-10T05:27:47;1.95;;;0.43;;
66707;SDS011;53622;0.000;0.000;2023-05-10T05:30:16;0.50;;;0.30;;
66707;SDS011;53622;0.000;0.000;2023-05-10T05:32:45;0.30;;;0.30;;
66707;SDS011;53622;0.000;0.000;2023-05-10T05:35:15;0.52;;;0.20;;
66707;SDS011;53622;0.000;0.000;2023-05-10T05:37:45;0.75;;;0.38;;
66707;SDS011;53622;0.000;0.000;2023-05-10T05:40:14;0.63;;;0.40;;
66707;SDS011;53622;0.000;0.000;2023-05-10T05:42:45;1.85;;;0.30;;
66707;SDS011;53622;0.000;0.000;2023-05-10T05:45:14;0.52;;;0.20;;
66707;SDS011;53622;0.000;0.000;2023-05-10T05:47:44;0.75;;;0.30;;
66707;SDS011;53622;0.000;0.000;2023-05-10T05:50:13;0.20;;;0.20;;
66707;SDS011;53622;0.000;0.000;2023-05-10T05:52:42;0.88;;;0.20;;
66707;SDS011;53622;0.000;0.000;2023-05-10T05:55:12;0.35;;;0.35;;
66707;SDS011;53622;0.000;0.000;2023-05-10T05:57:41;0.50;;;0.30;;
66707;SDS011;53622;0.000;0.000;2023-05-10T06:00:13;0.40;;;0.25;;
66707;SDS011;53622;0.000;0.000;2023-05-10T06:02:44;1.45;;;0.40;;
66707;SDS011;53622;0.000;0.000;2023-05-10T06:05:15;1.60;;;0.45;;
66707;SDS011;53622;0.000;0.000;2023-05-10T06:07:44;0.93;;;0.30;;
66707;SDS011;53622;0.000;0.000;2023-05-10T06:10:13;4.38;;;0.50;;
66707;SDS011;53622;0.000;0.000;2023-05-10T06:12:43;2.25;;;0.70;;
66707;SDS011;53622;0.000;0.000;2023-05-10T06:15:14;1.90;;;0.38;;
66707;SDS011;53622;0.000;0.000;2023-05-10T06:17:44;2.45;;;0.40;;
66707;SDS011;53622;0.000;0.000;2023-05-10T06:20:14;1.02;;;0.40;;
66707;SDS011;53622;0.000;0.000;2023-05-10T06:22:44;5.53;;;0.63;;
66707;SDS011;53622;0.000;0.000;2023-05-10T06:25:13;7.68;;;0.60;;
66707;SDS011;53622;0.000;0.000;2023-05-10T06:27:45;4.57;;;0.50;;
66707;SDS011;53622;0.000;0.000;2023-05-10T06:30:21;1.55;;;0.40;;
66707;SDS011;53622;0.000;0.000;2023-05-10T06:32:54;3.30;;;0.80;;
66707;SDS011;53622;0.000;0.000;2023-05-10T06:35:24;5.88;;;0.60;;
66707;SDS011;53622;0.000;0.000;2023-05-10T06:37:54;3.65;;;0.35;;
66707;SDS011;53622;0.000;0.000;2023-05-10T06:40:24;3.80;;;0.75;;
66707;SDS011;53622;0.000;0.000;2023-05-10T06:42:55;3.08;;;0.35;;
66707;SDS011;53622;0.000;0.000;2023-05-10T06:45:26;5.78;;;0.60;;
66707;SDS011;53622;0.000;0.000;2023-05-10T06:47:55;1.58;;;0.45;;
66707;SDS011;53622;0.000;0.000;2023-05-10T06:50:24;2.63;;;0.63;;
66707;SDS011;53622;0.000;0.000;2023-05-10T06:55:49;2.05;;;0.60;;
66707;SDS011;53622;0.000;0.000;2023-05-10T06:58:18;5.22;;;0.70;;
66707;SDS011;53622;0.000;0.000;2023-05-10T07:00:49;0.60;;;0.40;;
66707;SDS011;53622;0.000;0.000;2023-05-10T07:03:18;2.22;;;0.60;;
66707;SDS011;53622;0.000;0.000;2023-05-10T07:05:48;2.42;;;0.55;;
66707;SDS011;53622;0.000;0.000;2023-05-10T07:08:17;4.82;;;0.60;;
66707;SDS011;53622;0.000;0.000;2023-05-10T07:10:47;2.95;;;0.65;;
66707;SDS011;53622;0.000;0.000;2023-05-10T07:13:16;1.90;;;0.50;;
66707;SDS011;53622;0.000;0.000;2023-05-10T07:15:45;0.98;;;0.40;;
66707;SDS011;53622;0.000;0.000;2023-05-10T07:18:16;2.85;;;0.55;;
66707;SDS011;53622;0.000;0.000;2023-05-10T07:20:45;1.67;;;0.60;;
66707;SDS011;53622;0.000;0.000;2023-05-10T07:23:15;1.60;;;0.47;;
66707;SDS011;53622;0.000;0.000;2023-05-10T07:25:45;2.65;;;0.80;;
66707;SDS011;53622;0.000;0.000;2023-05-10T07:28:15;2.42;;;0.50;;
66707;SDS011;53622;0.000;0.000;2023-05-10T07:30:44;3.40;;;0.60;;
66707;SDS011;53622;0.000;0.000;2023-05-10T07:33:14;1.63;;;0.40;;
66707;SDS011;53622;0.000;0.000;2023-05-10T07:35:45;2.30;;;0.65;;
66707;SDS011;53622;0.000;0.000;2023-05-10T07:38:14;1.88;;;0.57;;
66707;SDS011;53622;0.000;0.000;2023-05-10T07:40:44;2.20;;;0.70;;
66707;SDS011;53622;0.000;0.000;2023-05-10T07:43:14;2.13;;;0.68;;
66707;SDS011;53622;0.000;0.000;2023-05-10T07:45:43;5.22;;;0.75;;
66707;SDS011;53622;0.000;0.000;2023-05-10T07:48:13;5.32;;;0.95;;
66707;SDS011;53622;0.000;0.000;2023-05-10T07:50:42;3.78;;;0.70;;
66707;SDS011;53622;0.000;0.000;2023-05-10T07:53:13;3.88;;;0.75;;
66707;SDS011;53622;0.000;0.000;2023-05-10T07:55:43;2.63;;;0.80;;
66707;SDS011;53622;0.000;0.000;2023-05-10T07:58:13;4.68;;;0.80;;
66707;SDS011;53622;0.000;0.000;2023-05-10T08:00:42;5.15;;;0.82;;
66707;SDS011;53622;0.000;0.000;2023-05-10T08:03:12;2.72;;;0.75;;
66707;SDS011;53622;0.000;0.000;2023-05-10T08:05:41;6.50;;;0.90;;
66707;SDS011;53622;0.000;0.000;2023-05-10T08:08:10;4.97;;;0.80;;
66707;SDS011;53622;0.000;0.000;2023-05-10T08:10:41;2.83;;;0.73;;
66707;SDS011;53622;0.000;0.000;2023-05-10T08:13:11;2.75;;;0.68;;
66707;SDS011;53622;0.000;0.000;2023-05-10T08:15:40;1.63;;;0.63;;
66707;SDS011;53622;0.000;0.000;2023-05-10T08:18:09;2.80;;;0.82;;
66707;SDS011;53622;0.000;0.000;2023-05-10T08:20:38;3.78;;;0.73;;
66707;SDS011;53622;0.000;0.000;2023-05-10T08:23:08;1.98;;;0.60;;
66707;SDS011;53622;0.000;0.000;2023-05-10T08:25:37;5.18;;;0.70;;
66707;SDS011;53622;0.000;0.000;2023-05-10T08:28:08;3.40;;;0.60;;
66707;SDS011;53622;0.000;0.000;2023-05-10T08:30:38;4.28;;;0.73;;
66707;SDS011;53622;0.000;0.000;2023-05-10T08:33:07;6.97;;;1.10;;
66707;SDS011;53622;0.000;0.000;2023-05-10T08:35:36;5.25;;;1.27;;
66707;SDS011;53622;0.000;0.000;2023-05-10T08:38:06;3.70;;;0.80;;
66707;SDS011;53622;0.000;0.000;2023-05-10T08:40:36;4.93;;;0.88;;
66707;SDS011;53622;0.000;0.000;2023-05-10T08:43:06;3.58;;;0.80;;
66707;SDS011;53622;0.000;0.000;2023-05-10T08:45:38;6.25;;;0.80;;
66707;SDS011;53622;0.000;0.000;2023-05-10T08:48:10;1.52;;;0.60;;
66707;SDS011;53622;0.000;0.000;2023-05-10T08:50:40;4.43;;;0.55;;
66707;SDS011;53622;0.000;0.000;2023-05-10T08:53:12;2.70;;;0.70;;
66707;SDS011;53622;0.000;0.000;2023-05-10T08:55:43;3.83;;;0.98;;
66707;SDS011;53622;0.000;0.000;2023-05-10T08:58:15;3.63;;;0.68;;
66707;SDS011;53622;0.000;0.000;2023-05-10T09:00:48;3.10;;;0.85;;
66707;SDS011;53622;0.000;0.000;2023-05-10T09:03:20;3.38;;;1.10;;
66707;SDS011;53622;0.000;0.000;2023-05-10T09:05:49;4.93;;;0.70;;
66707;SDS011;53622;0.000;0.000;2023-05-10T09:08:19;2.88;;;0.80;;
66707;SDS011;53622;0.000;0.000;2023-05-10T09:10:49;4.70;;;1.20;;
66707;SDS011;53622;0.000;0.000;2023-05-10T09:13:19;4.25;;;0.90;;
66707;SDS011;53622;0.000;0.000;2023-05-10T09:15:50;2.42;;;0.70;;
66707;SDS011;53622;0.000;0.000;2023-05-10T09:18:21;1.65;;;0.60;;
66707;SDS011;53622;0.000;0.000;2023-05-10T09:20:54;3.80;;;0.82;;
66707;SDS011;53622;0.000;0.000;2023-05-10T09:23:23;1.55;;;0.80;;
66707;SDS011;53622;0.000;0.000;2023-05-10T09:26:01;2.45;;;0.80;;
66707;SDS011;53622;0.000;0.000;2023-05-10T09:28:33;4.68;;;1.00;;
66707;SDS011;53622;0.000;0.000;2023-05-10T09:31:02;3.17;;;1.00;;
66707;SDS011;53622;0.000;0.000;2023-05-10T09:33:33;4.10;;;1.23;;
66707;SDS011;53622;0.000;0.000;2023-05-10T09:36:13;5.07;;;1.00;;
66707;SDS011;53622;0.000;0.000;2023-05-10T09:38:46;3.15;;;0.95;;
66707;SDS011;53622;0.000;0.000;2023-05-10T09:41:17;3.08;;;1.00;;
66707;SDS011;53622;0.000;0.000;2023-05-10T09:43:48;3.85;;;0.90;;
66707;SDS011;53622;0.000;0.000;2023-05-10T09:46:19;4.55;;;1.30;;
66707;SDS011;53622;0.000;0.000;2023-05-10T09:48:48;3.72;;;0.93;;
66707;SDS011;53622;0.000;0.000;2023-05-10T09:51:20;1.98;;;0.93;;
66707;SDS011;53622;0.000;0.000;2023-05-10T09:53:50;2.70;;;0.90;;
66707;SDS011;53622;0.000;0.000;2023-05-10T09:56:37;2.85;;;0.95;;
66707;SDS011;53622;0.000;0.000;2023-05-10T09:59:09;2.63;;;0.70;;
66707;SDS011;53622;0.000;0.000;2023-05-10T10:01:40;3.25;;;1.10;;
66707;SDS011;53622;0.000;0.000;2023-05-10T10:04:09;2.58;;;0.68;;
66707;SDS011;53622;0.000;0.000;2023-05-10T10:06:39;2.03;;;0.77;;
66707;SDS011;53622;0.000;0.000;2023-05-10T10:09:08;2.88;;;0.93;;
66707;SDS011;53622;0.000;0.000;2023-05-10T10:11:38;2.53;;;0.82;;
66707;SDS011;53622;0.000;0.000;2023-05-10T10:14:10;2.58;;;1.00;;
66707;SDS011;53622;0.000;0.000;2023-05-10T10:16:40;3.78;;;0.95;;
66707;SDS011;53622;0.000;0.000;2023-05-10T10:19:30;4.65;;;0.95;;
66707;SDS011;53622;0.000;0.000;2023-05-10T10:22:03;3.08;;;0.80;;
66707;SDS011;53622;0.000;0.000;2023-05-10T10:24:33;6.97;;;1.27;;
66707;SDS011;53622;0.000;0.000;2023-05-10T10:27:04;3.40;;;0.90;;
66707;SDS011;53622;0.000;0.000;2023-05-10T10:29:45;3.25;;;0.80;;
66707;SDS011;53622;0.000;0.000;2023-05-10T10:32:22;5.55;;;1.10;;
66707;SDS011;53622;0.000;0.000;2023-05-10T10:34:58;5.35;;;1.00;;
66707;SDS011;53622;0.000;0.000;2023-05-10T10:37:41;4.43;;;0.88;;
66707;SDS011;53622;0.000;0.000;2023-05-10T10:40:25;5.05;;;1.00;;
66707;SDS011;53622;0.000;0.000;2023-05-10T10:43:20;11.68;;;1.52;;
66707;SDS011;53622;0.000;0.000;2023-05-10T10:48:47;6.50;;;1.00;;
66707;SDS011;53622;0.000;0.000;2023-05-10T10:51:20;9.07;;;1.10;;
66707;SDS011;53622;0.000;0.000;2023-05-10T10:53:49;8.90;;;1.20;;
66707;SDS011;53622;0.000;0.000;2023-05-10T10:56:18;10.70;;;1.25;;
66707;SDS011;53622;0.000;0.000;2023-05-10T10:58:51;8.38;;;1.27;;
66707;SDS011;53622;0.000;0.000;2023-05-10T11:01:22;8.63;;;1.80;;
66707;SDS011;53622;0.000;0.000;2023-05-10T11:04:16;8.40;;;1.35;;
66707;SDS011;53622;0.000;0.000;2023-05-10T11:06:48;9.60;;;1.85;;
66707;SDS011;53622;0.000;0.000;2023-05-10T11:09:17;8.57;;;1.50;;
66707;SDS011;53622;0.000;0.000;2023-05-10T11:11:51;6.78;;;1.40;;
66707;SDS011;53622;0.000;0.000;2023-05-10T11:14:22;5.30;;;1.15;;
66707;SDS011;53622;0.000;0.000;2023-05-10T11:16:53;5.05;;;1.30;;
66707;SDS011;53622;0.000;0.000;2023-05-10T11:19:22;4.05;;;1.10;;
66707;SDS011;53622;0.000;0.000;2023-05-10T11:22:11;9.63;;;1.58;;
66707;SDS011;53622;0.000;0.000;2023-05-10T11:24:41;8.20;;;1.27;;
66707;SDS011;53622;0.000;0.000;2023-05-10T11:27:25;6.75;;;1.58;;
66707;SDS011;53622;0.000;0.000;2023-05-10T11:29:54;8.85;;;1.40;;
66707;SDS011;53622;0.000;0.000;2023-05-10T11:32:25;4.43;;;1.13;;
66707;SDS011;53622;0.000;0.000;2023-05-10T11:34:55;4.50;;;1.10;;
66707;SDS011;53622;0.000;0.000;2023-05-10T11:37:24;6.13;;;1.35;;
66707;SDS011;53622;0.000;0.000;2023-05-10T11:39:59;5.40;;;0.98;;
66707;SDS011;53622;0.000;0.000;2023-05-10T11:42:30;6.00;;;1.15;;
66707;SDS011;53622;0.000;0.000;2023-05-10T11:45:00;5.68;;;1.30;;
66707;SDS011;53622;0.000;0.000;2023-05-10T11:47:31;3.97;;;1.05;;
66707;SDS011;53622;0.000;0.000;2023-05-10T11:50:03;4.50;;;1.30;;
66707;SDS011;53622;0.000;0.000;2023-05-10T11:52:35;4.22;;;1.00;;
66707;SDS011;53622;0.000;0.000;2023-05-10T11:55:05;3.97;;;1.05;;
66707;SDS011;53622;0.000;0.000;2023-05-10T11:57:35;6.05;;;1.20;;
66707;SDS011;53622;0.000;0.000;2023-05-10T12:00:06;10.38;;;1.05;;
66707;SDS011;53622;0.000;0.000;2023-05-10T12:02:37;4.18;;;1.08;;
66707;SDS011;53622;0.000;0.000;2023-05-10T12:05:08;3.85;;;1.08;;
66707;SDS011;53622;0.000;0.000;2023-05-10T12:07:38;2.83;;;0.80;;
66707;SDS011;53622;0.000;0.000;2023-05-10T12:10:08;3.97;;;0.70;;
66707;SDS011;53622;0.000;0.000;2023-05-10T12:12:39;3.88;;;0.70;;
66707;SDS011;53622;0.000;0.000;2023-05-10T12:15:10;5.10;;;1.27;;
66707;SDS011;53622;0.000;0.000;2023-05-10T12:17:42;5.03;;;1.10;;
66707;SDS011;53622;0.000;0.000;2023-05-10T12:20:17;5.65;;;1.00;;
66707;SDS011;53622;0.000;0.000;2023-05-10T12:22:49;5.45;;;0.90;;
66707;SDS011;53622;0.000;0.000;2023-05-10T12:25:20;7.93;;;0.98;;
66707;SDS011;53622;0.000;0.000;2023-05-10T12:27:51;3.55;;;1.02;;
66707;SDS011;53622;0.000;0.000;2023-05-10T12:30:22;3.50;;;0.90;;
66707;SDS011;53622;0.000;0.000;2023-05-10T12:32:59;6.10;;;0.93;;
66707;SDS011;53622;0.000;0.000;2023-05-10T12:35:30;6.72;;;1.15;;
66707;SDS011;53622;0.000;0.000;2023-05-10T12:37:59;1.70;;;0.70;;
66707;SDS011;53622;0.000;0.000;2023-05-10T12:40:28;2.42;;;1.08;;
66707;SDS011;53622;0.000;0.000;2023-05-10T12:42:58;2.50;;;0.75;;
66707;SDS011;53622;0.000;0.000;2023-05-10T12:45:27;4.72;;;1.05;;
66707;SDS011;53622;0.000;0.000;2023-05-10T12:47:58;3.20;;;0.88;;
66707;SDS011;53622;0.000;0.000;2023-05-10T12:50:28;2.83;;;0.85;;
66707;SDS011;53622;0.000;0.000;2023-05-10T12:52:57;3.17;;;1.10;;
66707;SDS011;53622;0.000;0.000;2023-05-10T12:55:26;3.05;;;1.20;;
66707;SDS011;53622;0.000;0.000;2023-05-10T12:57:55;4.95;;;1.20;;
66707;SDS011;53622;0.000;0.000;2023-05-10T13:00:25;4.78;;;1.23;;
66707;SDS011;53622;0.000;0.000;2023-05-10T13:02:54;2.55;;;0.90;;
66707;SDS011;53622;0.000;0.000;2023-05-10T13:05:25;4.18;;;0.80;;
66707;SDS011;53622;0.000;0.000;2023-05-10T13:07:54;3.63;;;0.93;;
66707;SDS011;53622;0.000;0.000;2023-05-10T13:10:23;3.65;;;0.75;;
66707;SDS011;53622;0.000;0.000;2023-05-10T13:12:53;2.65;;;0.85;;
66707;SDS011;53622;0.000;0.000;2023-05-10T13:15:22;1.52;;;0.70;;
66707;SDS011;53622;0.000;0.000;2023-05-10T13:17:51;1.98;;;0.75;;
66707;SDS011;53622;0.000;0.000;2023-05-10T13:20:21;2.70;;;0.60;;
66707;SDS011;53622;0.000;0.000;2023-05-10T13:22:52;2.03;;;0.60;;
66707;SDS011;53622;0.000;0.000;2023-05-10T13:25:21;3.08;;;1.00;;
66707;SDS011;53622;0.000;0.000;2023-05-10T13:27:50;3.65;;;0.88;;
66707;SDS011;53622;0.000;0.000;2023-05-10T13:30:20;3.40;;;0.90;;
66707;SDS011;53622;0.000;0.000;2023-05-10T13:32:51;5.32;;;1.13;;
66707;SDS011;53622;0.000;0.000;2023-05-10T13:35:21;2.97;;;1.15;;
66707;SDS011;53622;0.000;0.000;2023-05-10T13:37:53;2.78;;;1.10;;
66707;SDS011;53622;0.000;0.000;2023-05-10T13:40:25;9.35;;;1.25;;
66707;SDS011;53622;0.000;0.000;2023-05-10T13:42:55;5.32;;;1.23;;
66707;SDS011;53622;0.000;0.000;2023-05-10T13:45:24;2.47;;;0.90;;
66707;SDS011;53622;0.000;0.000;2023-05-10T13:47:54;4.50;;;1.17;;
66707;SDS011;53622;0.000;0.000;2023-05-10T13:50:23;3.08;;;0.90;;
66707;SDS011;53622;0.000;0.000;2023-05-10T13:52:54;2.90;;;0.80;;
66707;SDS011;53622;0.000;0.000;2023-05-10T13:55:23;6.47;;;1.13;;
66707;SDS011;53622;0.000;0.000;2023-05-10T13:57:52;6.43;;;1.30;;
66707;SDS011;53622;0.000;0.000;2023-05-10T14:00:21;10.38;;;1.40;;
66707;SDS011;53622;0.000;0.000;2023-05-10T14:02:50;7.03;;;1.08;;
66707;SDS011;53622;0.000;0.000;2023-05-10T14:05:20;10.88;;;1.20;;
66707;SDS011;53622;0.000;0.000;2023-05-10T14:07:53;5.32;;;1.40;;
66707;SDS011;53622;0.000;0.000;2023-05-10T14:10:23;4.45;;;1.00;;
66707;SDS011;53622;0.000;0.000;2023-05-10T14:12:52;7.07;;;1.05;;
66707;SDS011;53622;0.000;0.000;2023-05-10T14:15:21;6.30;;;1.33;;
66707;SDS011;53622;0.000;0.000;2023-05-10T14:17:50;4.85;;;1.30;;
66707;SDS011;53622;0.000;0.000;2023-05-10T14:20:20;7.05;;;1.33;;
66707;SDS011;53622;0.000;0.000;2023-05-10T14:22:49;3.90;;;1.17;;
66707;SDS011;53622;0.000;0.000;2023-05-10T14:25:20;2.53;;;1.00;;
66707;SDS011;53622;0.000;0.000;2023-05-10T14:27:50;4.70;;;1.10;;
66707;SDS011;53622;0.000;0.000;2023-05-10T14:30:21;4.40;;;1.08;;
66707;SDS011;53622;0.000;0.000;2023-05-10T14:32:51;5.32;;;1.40;;
66707;SDS011;53622;0.000;0.000;2023-05-10T14:35:21;4.95;;;1.08;;
66707;SDS011;53622;0.000;0.000;2023-05-10T14:37:51;4.15;;;1.00;;
66707;SDS011;53622;0.000;0.000;2023-05-10T14:40:21;2.55;;;0.90;;
66707;SDS011;53622;0.000;0.000;2023-05-10T14:42:53;2.88;;;1.10;;
66707;SDS011;53622;0.000;0.000;2023-05-10T14:45:23;3.15;;;1.05;;
66707;SDS011;53622;0.000;0.000;2023-05-10T14:47:52;4.15;;;0.90;;
66707;SDS011;53622;0.000;0.000;2023-05-10T14:50:21;2.80;;;0.95;;
66707;SDS011;53622;0.000;0.000;2023-05-10T14:52:58;4.90;;;1.05;;
66707;SDS011;53622;0.000;0.000;2023-05-10T14:55:29;2.22;;;0.90;;
66707;SDS011;53622;0.000;0.000;2023-05-10T14:57:58;2.90;;;0.68;;
66707;SDS011;53622;0.000;0.000;2023-05-10T15:00:28;5.63;;;1.27;;
66707;SDS011;53622;0.000;0.000;2023-05-10T15:02:58;2.92;;;0.88;;
66707;SDS011;53622;0.000;0.000;2023-05-10T15:05:28;3.35;;;1.10;;
66707;SDS011;53622;0.000;0.000;2023-05-10T15:08:06;2.33;;;0.98;;
66707;SDS011;53622;0.000;0.000;2023-05-10T15:10:37;3.10;;;0.85;;
66707;SDS011;53622;0.000;0.000;2023-05-10T15:13:07;3.53;;;0.93;;
66707;SDS011;53622;0.000;0.000;2023-05-10T15:15:36;1.90;;;0.93;;
66707;SDS011;53622;0.000;0.000;2023-05-10T15:18:05;3.28;;;0.80;;
66707;SDS011;53622;0.000;0.000;2023-05-10T15:20:34;2.90;;;1.10;;
66707;SDS011;53622;0.000;0.000;2023-05-10T15:23:03;3.75;;;0.75;;
66707;SDS011;53622;0.000;0.000;2023-05-10T15:25:33;2.42;;;0.98;;
66707;SDS011;53622;0.000;0.000;2023-05-10T15:28:05;2.92;;;1.00;;
66707;SDS011;53622;0.000;0.000;2023-05-10T15:30:35;2.30;;;0.90;;
66707;SDS011;53622;0.000;0.000;2023-05-10T15:33:04;2.20;;;0.90;;
66707;SDS011;53622;0.000;0.000;2023-05-10T15:35:34;1.35;;;0.60;;